Terminal Aerodrome Forecast
Issued by NWS

Home | Current Version | Previous Version | Graphics & Text | Print | Product List | Glossary On
Versions: 1 2 3 4 5 6 7 8 9 10 11 12 13
103
FTUS43 KMPX 011126
TAFRNH
TAF
KRNH 011126Z 0112/0212 32007KT P6SM OVC006
     FM011800 33009KT P6SM SCT009 OVC015
     FM012100 31008KT P6SM BKN020 OVC035=

USA.gov is the U.S. government's official web portal to all federal, state and local government web resources and services.